createdAt,value
2018-07-25T06:21:58.374Z,227.5
2018-07-25T06:24:04.356Z,218.9
2018-07-25T06:26:32.368Z,252
2018-07-25T06:28:38.388Z,265
2018-07-25T06:30:44.261Z,266.4
2018-07-25T06:32:50.197Z,237.6
2018-07-25T06:34:56.450Z,246.2
2018-07-25T06:37:05.183Z,247.7
2018-07-25T06:39:11.332Z,241.9
2018-07-25T06:41:17.271Z,213.1
2018-07-25T06:43:23.590Z,221.8
2018-07-25T06:45:29.927Z,223.2
2018-07-25T06:47:36.174Z,223.2
2018-07-25T06:49:42.135Z,227.5
2018-07-25T06:51:48.167Z,230.4
2018-07-25T06:53:54.041Z,230.4
2018-07-25T06:56:00.183Z,237.6
2018-07-25T06:58:06.143Z,247.7
2018-07-25T07:00:12.064Z,250.6
2018-07-25T07:02:18.033Z,254.9
2018-07-25T07:04:23.989Z,257.8
2018-07-25T07:06:30.279Z,257.8
2018-07-25T07:08:38.604Z,259.2
2018-07-25T07:10:44.492Z,224.6
2018-07-25T07:12:50.517Z,231.8
2018-07-25T07:14:56.405Z,288
2018-07-25T07:17:02.370Z,308.2
2018-07-25T07:19:08.269Z,308.2
2018-07-25T07:21:14.269Z,301
2018-07-25T07:23:20.144Z,279.4
2018-07-25T07:25:26.132Z,270.7
2018-07-25T07:27:32.245Z,267.8
2018-07-25T07:29:38.183Z,230.4
2018-07-25T07:31:44.061Z,244.8
2018-07-25T07:33:49.986Z,267.8
2018-07-25T07:35:55.901Z,270.7
2018-07-25T07:38:02.113Z,272.2
2018-07-25T07:40:07.960Z,216
2018-07-25T07:42:14.007Z,283.7
2018-07-25T07:44:20.444Z,282.2
2018-07-25T07:46:26.383Z,252
2018-07-25T07:48:32.471Z,252
2018-07-25T07:50:38.426Z,236.2
2018-07-25T07:52:44.461Z,218.9
2018-07-25T07:54:50.446Z,276.5
2018-07-25T07:56:56.364Z,227.5
2018-07-25T07:59:02.437Z,292.3
2018-07-25T08:01:08.383Z,339.8
2018-07-25T08:03:14.338Z,334.1
2018-07-25T08:05:21.326Z,303.8
2018-07-25T08:07:30.599Z,280.8
2018-07-25T08:09:36.835Z,280.8
2018-07-25T08:11:42.739Z,283.7
2018-07-25T08:13:48.716Z,313.9
2018-07-25T08:15:54.780Z,301
2018-07-25T08:18:01.088Z,262.1
2018-07-25T08:20:07.566Z,305.3
2018-07-25T08:22:13.562Z,295.2
2018-07-25T08:24:19.527Z,263.5
2018-07-25T08:26:25.911Z,282.2
2018-07-25T08:28:32.742Z,290.9
2018-07-25T08:30:38.691Z,285.1
2018-07-25T08:31:59.445Z,239
2018-07-25T08:34:05.391Z,241.9
2018-07-25T08:36:11.292Z,227.5
2018-07-25T08:38:17.240Z,226.1
2018-07-25T08:40:23.117Z,221.8
2018-07-25T08:42:29.255Z,243.4
2018-07-25T08:44:35.370Z,205.9
2018-07-25T08:46:41.522Z,230.4
2018-07-25T08:48:47.416Z,208.8
2018-07-25T08:50:53.324Z,253.4
2018-07-25T08:52:59.420Z,257.8
2018-07-25T08:55:05.327Z,253.4
2018-07-25T08:57:11.242Z,275
2018-07-25T08:59:17.261Z,289.4
2018-07-25T09:01:23.295Z,286.6
2018-07-25T09:03:29.188Z,282.2
2018-07-25T09:05:35.067Z,277.9
2018-07-25T09:07:41.820Z,285.1
2018-07-25T09:09:48.278Z,275
2018-07-25T09:11:54.145Z,256.3
2018-07-25T09:14:00.175Z,155.5
2018-07-25T09:16:06.073Z,218.9
2018-07-25T09:18:12.143Z,282.2
2018-07-25T09:20:18.034Z,283.7
2018-07-25T09:22:23.916Z,289.4
2018-07-25T09:24:29.944Z,259.2
2018-07-25T09:26:35.894Z,260.6
2018-07-25T09:28:42.140Z,253.4
2018-07-25T09:30:48.228Z,253.4
2018-07-25T09:32:55.291Z,247.7
2018-07-25T09:35:01.349Z,269.3
2018-07-25T09:37:07.390Z,267.8
2018-07-25T09:39:13.560Z,263.5
2018-07-25T09:41:19.700Z,262.1
2018-07-25T09:43:25.848Z,262.1
2018-07-25T09:45:31.920Z,263.5
2018-07-25T09:47:40.555Z,265
2018-07-25T09:49:46.592Z,267.8
2018-07-25T09:51:52.754Z,269.3
2018-07-25T09:53:58.890Z,269.3
2018-07-25T09:56:07.301Z,270.7
2018-07-25T09:58:13.273Z,270.7
2018-07-25T10:00:19.434Z,270.7
2018-07-25T10:02:25.414Z,272.2
2018-07-25T10:04:31.521Z,273.6
2018-07-25T10:06:37.683Z,273.6
2018-07-25T10:08:46.201Z,276.5
2018-07-25T10:10:52.478Z,277.9
2018-07-25T10:12:58.529Z,282.2
2018-07-25T10:15:05.229Z,285.1
2018-07-25T10:17:11.825Z,285.1
2018-07-25T10:19:17.910Z,290.9
2018-07-25T10:21:26.124Z,283.7
2018-07-25T10:23:34.504Z,290.9
2018-07-25T10:25:40.501Z,289.4
2018-07-25T10:27:46.628Z,296.6
2018-07-25T10:29:52.697Z,293.8
2018-07-25T10:31:58.843Z,285.1
2018-07-25T10:34:05.752Z,276.5
2018-07-25T10:36:14.031Z,275
2018-07-25T10:38:20.209Z,269.3
2018-07-25T10:40:27.088Z,279.4
2018-07-25T10:42:33.409Z,279.4
2018-07-25T10:44:39.775Z,288
2018-07-25T10:46:46.858Z,290.9
2018-07-25T10:48:56.435Z,296.6
2018-07-25T10:51:02.569Z,305.3
2018-07-25T10:53:08.606Z,305.3
2018-07-25T10:55:14.689Z,270.7
2018-07-25T10:57:23.085Z,263.5
2018-07-25T10:59:31.585Z,234.7
2018-07-25T11:01:38.495Z,224.6
2018-07-25T12:48:11.343Z,100.8
2018-07-25T12:50:17.404Z,240.5
2018-07-25T12:52:24.268Z,226.1
2018-07-25T12:54:30.320Z,237.6
2018-07-25T12:56:36.683Z,259.2
2018-07-25T12:58:42.852Z,250.6
2018-07-25T13:00:48.906Z,288
2018-07-25T13:02:53.607Z,283.7
2018-07-25T13:04:59.892Z,279.4
2018-07-25T13:07:06.483Z,285.1
2018-07-25T13:09:10.907Z,266.4
2018-07-25T13:11:15.917Z,276.5
2018-07-25T13:13:20.284Z,266.4
2018-07-25T13:15:25.902Z,276.5
2018-07-25T13:17:31.307Z,259.2
2018-07-25T13:19:35.569Z,254.9
2018-07-25T13:21:39.936Z,253.4
2018-07-25T13:23:44.144Z,254.9
2018-07-25T13:25:49.589Z,253.4
2018-07-25T13:27:54.803Z,252
2018-07-25T13:29:59.083Z,252
2018-07-25T13:32:03.374Z,254.9
2018-07-25T13:34:07.639Z,254.9
2018-07-25T13:36:14.028Z,249.1
2018-07-25T13:38:18.953Z,247.7
2018-07-25T13:40:23.277Z,246.2
2018-07-25T13:42:27.481Z,247.7
2018-07-25T13:44:31.798Z,250.6
2018-07-25T13:46:37.388Z,250.6
2018-07-25T13:48:42.728Z,252
2018-07-25T13:50:47.093Z,259.2
2018-07-25T13:52:51.576Z,272.2
2018-07-25T13:54:56.140Z,280.8
2018-07-25T13:57:01.384Z,282.2
2018-07-25T13:59:06.990Z,282.2
2018-07-25T14:01:14.041Z,279.4
2018-07-25T14:03:18.302Z,272.2
2018-07-25T14:05:22.987Z,262.1
2018-07-25T14:07:28.374Z,254.9
2018-07-25T14:09:32.989Z,247.7
2018-07-25T14:11:37.617Z,266.4
2018-07-25T14:13:42.075Z,262.1
2018-07-25T14:15:46.341Z,260.6
2018-07-25T14:17:51.790Z,241.9
2018-07-25T14:19:57.039Z,244.8
2018-07-25T14:22:01.339Z,243.4
2018-07-25T14:24:06.636Z,243.4
2018-07-25T14:26:12.526Z,243.4
2018-07-25T14:28:17.553Z,243.4
2018-07-25T14:30:22.699Z,247.7
2018-07-25T14:32:28.135Z,249.1
2018-07-25T14:34:32.663Z,243.4
2018-07-25T14:36:36.968Z,240.5
2018-07-25T14:38:42.201Z,241.9
2018-07-25T14:40:46.718Z,240.5
2018-07-25T14:42:51.027Z,240.5
2018-07-25T14:44:55.345Z,240.5
2018-07-25T14:47:00.146Z,246.2
2018-07-25T14:49:06.328Z,244.8
2018-07-25T14:51:11.843Z,243.4
2018-07-25T14:53:16.582Z,241.9
2018-07-25T14:55:20.812Z,240.5
2018-07-25T14:57:25.119Z,240.5
2018-07-25T14:59:30.563Z,241.9
2018-07-25T15:01:36.530Z,241.9
2018-07-25T15:03:40.727Z,241.9
2018-07-25T15:05:45.060Z,229
2018-07-25T15:07:49.402Z,244.8
2018-07-25T15:09:54.593Z,249.1
2018-07-25T15:12:03.181Z,253.4
2018-07-25T15:14:07.422Z,244.8
2018-07-25T15:16:11.740Z,241.9
2018-07-25T15:18:16.052Z,246.2
2018-07-25T15:20:21.594Z,249.1
2018-07-25T15:22:27.853Z,262.1
2018-07-25T15:24:32.270Z,265
2018-07-25T15:26:36.585Z,267.8
2018-07-25T15:28:40.893Z,260.6
2018-07-25T15:30:45.219Z,254.9
2018-07-25T15:32:50.040Z,250.6
2018-07-25T15:34:54.553Z,250.6
2018-07-25T15:36:58.766Z,249.1
2018-07-25T15:39:04.116Z,249.1
2018-07-25T15:41:09.767Z,250.6
2018-07-25T15:43:13.968Z,250.6
2018-07-25T15:45:18.184Z,250.6
2018-07-25T15:47:22.645Z,252
2018-07-25T15:49:28.346Z,252
2018-07-25T15:51:34.810Z,252
2018-07-25T15:53:39.011Z,249.1
2018-07-25T15:55:43.381Z,246.2
2018-07-25T15:57:47.762Z,244.8
2018-07-25T15:59:53.196Z,247.7
2018-07-25T16:01:58.426Z,249.1
2018-07-25T16:04:02.841Z,253.4
2018-07-25T16:06:07.061Z,252
2018-07-25T16:08:11.381Z,252
2018-07-25T16:10:16.614Z,244.8
2018-07-25T16:12:22.047Z,241.9
2018-07-25T16:14:26.353Z,239
